sensor_id;sensor_type;location;lat;lon;timestamp;pressure;altitude;pressure_sealevel;temperature;humidity
73981;BME280;62348;51.412;5.436;2022-07-23T00:01:31;101717.91;;;16.64;73.33
73981;BME280;62348;51.412;5.436;2022-07-23T00:03:56;101718.75;;;16.59;73.72
73981;BME280;62348;51.412;5.436;2022-07-23T00:06:25;101714.41;;;16.58;73.33
73981;BME280;62348;51.412;5.436;2022-07-23T00:08:51;101712.75;;;16.57;73.55
73981;BME280;62348;51.412;5.436;2022-07-23T00:11:17;101718.53;;;16.51;73.53
73981;BME280;62348;51.412;5.436;2022-07-23T00:13:42;101712.22;;;16.50;73.30
73981;BME280;62348;51.412;5.436;2022-07-23T00:16:08;101708.69;;;16.50;73.50
73981;BME280;62348;51.412;5.436;2022-07-23T00:18:33;101711.69;;;16.53;73.60
73981;BME280;62348;51.412;5.436;2022-07-23T00:20:59;101719.34;;;16.51;73.89
73981;BME280;62348;51.412;5.436;2022-07-23T00:23:24;101714.72;;;16.47;73.80
73981;BME280;62348;51.412;5.436;2022-07-23T00:25:51;101716.88;;;16.45;73.98
73981;BME280;62348;51.412;5.436;2022-07-23T00:28:17;101714.75;;;16.42;73.73
73981;BME280;62348;51.412;5.436;2022-07-23T00:30:43;101711.47;;;16.39;73.81
73981;BME280;62348;51.412;5.436;2022-07-23T00:33:08;101707.66;;;16.35;74.54
73981;BME280;62348;51.412;5.436;2022-07-23T00:35:37;101710.09;;;16.37;74.49
73981;BME280;62348;51.412;5.436;2022-07-23T00:38:04;101717.75;;;16.35;74.06
73981;BME280;62348;51.412;5.436;2022-07-23T00:40:30;101716.41;;;16.32;74.47
73981;BME280;62348;51.412;5.436;2022-07-23T00:42:56;101714.25;;;16.24;74.50
73981;BME280;62348;51.412;5.436;2022-07-23T00:45:21;101718.06;;;16.23;74.52
73981;BME280;62348;51.412;5.436;2022-07-23T00:47:47;101713.16;;;16.20;74.88
73981;BME280;62348;51.412;5.436;2022-07-23T00:50:14;101705.81;;;16.20;75.08
73981;BME280;62348;51.412;5.436;2022-07-23T00:52:40;101705.81;;;16.15;75.06
73981;BME280;62348;51.412;5.436;2022-07-23T00:55:07;101707.16;;;16.18;75.03
73981;BME280;62348;51.412;5.436;2022-07-23T00:57:33;101702.28;;;16.10;75.12
73981;BME280;62348;51.412;5.436;2022-07-23T00:59:59;101698.47;;;16.11;75.21
73981;BME280;62348;51.412;5.436;2022-07-23T01:02:25;101695.47;;;16.07;75.40
73981;BME280;62348;51.412;5.436;2022-07-23T01:04:51;101703.66;;;16.02;75.44
73981;BME280;62348;51.412;5.436;2022-07-23T01:07:18;101697.13;;;16.03;75.27
73981;BME280;62348;51.412;5.436;2022-07-23T01:09:44;101694.94;;;15.95;75.55
73981;BME280;62348;51.412;5.436;2022-07-23T01:12:10;101701.25;;;15.95;75.92
73981;BME280;62348;51.412;5.436;2022-07-23T01:14:35;101693.59;;;15.92;75.83
73981;BME280;62348;51.412;5.436;2022-07-23T01:17:01;101693.88;;;15.91;75.60
73981;BME280;62348;51.412;5.436;2022-07-23T01:19:27;101696.91;;;15.84;75.29
73981;BME280;62348;51.412;5.436;2022-07-23T01:21:53;101696.09;;;15.78;75.95
73981;BME280;62348;51.412;5.436;2022-07-23T01:24:20;101697.44;;;15.71;76.00
73981;BME280;62348;51.412;5.436;2022-07-23T01:26:47;101691.69;;;15.72;76.14
73981;BME280;62348;51.412;5.436;2022-07-23T01:29:13;101696.31;;;15.72;76.54
73981;BME280;62348;51.412;5.436;2022-07-23T01:31:39;101691.44;;;15.64;76.40
73981;BME280;62348;51.412;5.436;2022-07-23T01:34:05;101689.78;;;15.62;76.57
73981;BME280;62348;51.412;5.436;2022-07-23T01:36:32;101685.44;;;15.61;76.58
73981;BME280;62348;51.412;5.436;2022-07-23T01:38:57;101693.63;;;15.56;76.41
73981;BME280;62348;51.412;5.436;2022-07-23T01:41:23;101692.81;;;15.56;76.60
73981;BME280;62348;51.412;5.436;2022-07-23T01:43:48;101691.72;;;15.52;76.37
73981;BME280;62348;51.412;5.436;2022-07-23T01:46:14;101695.53;;;15.51;76.60
73981;BME280;62348;51.412;5.436;2022-07-23T01:48:39;101687.34;;;15.46;76.58
73981;BME280;62348;51.412;5.436;2022-07-23T01:51:05;101688.44;;;15.45;76.68
73981;BME280;62348;51.412;5.436;2022-07-23T01:53:30;101685.19;;;15.42;76.75
73981;BME280;62348;51.412;5.436;2022-07-23T01:55:59;101691.44;;;15.38;76.69
73981;BME280;62348;51.412;5.436;2022-07-23T01:58:25;101677.25;;;15.31;77.13
73981;BME280;62348;51.412;5.436;2022-07-23T02:00:51;101678.34;;;15.25;76.94
73981;BME280;62348;51.412;5.436;2022-07-23T02:03:16;101677.00;;;15.22;76.89
73981;BME280;62348;51.412;5.436;2022-07-23T02:05:42;101689.25;;;15.25;77.18
73981;BME280;62348;51.412;5.436;2022-07-23T02:08:07;101687.91;;;15.22;77.42
73981;BME280;62348;51.412;5.436;2022-07-23T02:10:33;101685.16;;;15.17;77.38
73981;BME280;62348;51.412;5.436;2022-07-23T02:12:58;101682.97;;;15.19;77.17
73981;BME280;62348;51.412;5.436;2022-07-23T02:15:23;101681.63;;;15.16;77.33
73981;BME280;62348;51.412;5.436;2022-07-23T02:17:49;101684.63;;;15.15;77.38
73981;BME280;62348;51.412;5.436;2022-07-23T02:20:15;101688.69;;;15.17;77.48
73981;BME280;62348;51.412;5.436;2022-07-23T02:22:40;101677.28;;;15.10;77.62
73981;BME280;62348;51.412;5.436;2022-07-23T02:25:07;101684.06;;;15.08;77.14
73981;BME280;62348;51.412;5.436;2022-07-23T02:27:33;101673.97;;;14.98;77.23
73981;BME280;62348;51.412;5.436;2022-07-23T02:29:58;101673.44;;;15.01;77.37
73981;BME280;62348;51.412;5.436;2022-07-23T02:32:24;101668.25;;;14.94;77.34
73981;BME280;62348;51.412;5.436;2022-07-23T02:34:50;101671.78;;;14.90;77.40
73981;BME280;62348;51.412;5.436;2022-07-23T02:37:16;101672.06;;;14.88;77.56
73981;BME280;62348;51.412;5.436;2022-07-23T02:39:42;101680.78;;;14.90;77.83
73981;BME280;62348;51.412;5.436;2022-07-23T02:42:08;101682.66;;;14.84;77.56
73981;BME280;62348;51.412;5.436;2022-07-23T02:44:34;101680.75;;;14.80;77.32
73981;BME280;62348;51.412;5.436;2022-07-23T02:46:59;101677.22;;;14.84;77.67
73981;BME280;62348;51.412;5.436;2022-07-23T02:49:24;101672.59;;;14.80;77.63
73981;BME280;62348;51.412;5.436;2022-07-23T02:51:50;101673.38;;;14.75;77.63
73981;BME280;62348;51.412;5.436;2022-07-23T02:54:15;101672.56;;;14.75;77.51
73981;BME280;62348;51.412;5.436;2022-07-23T02:56:41;101668.75;;;14.76;77.71
73981;BME280;62348;51.412;5.436;2022-07-23T02:59:06;101677.22;;;14.74;77.93
73981;BME280;62348;51.412;5.436;2022-07-23T03:01:32;101673.94;;;14.72;77.76
73981;BME280;62348;51.412;5.436;2022-07-23T03:03:57;101672.28;;;14.71;78.05
73981;BME280;62348;51.412;5.436;2022-07-23T03:06:23;101676.09;;;14.65;77.70
73981;BME280;62348;51.412;5.436;2022-07-23T03:08:48;101678.81;;;14.65;77.99
73981;BME280;62348;51.412;5.436;2022-07-23T03:11:13;101677.16;;;14.59;77.91
73981;BME280;62348;51.412;5.436;2022-07-23T03:13:40;101681.78;;;14.58;78.59
73981;BME280;62348;51.412;5.436;2022-07-23T03:16:06;101687.50;;;14.62;78.23
73981;BME280;62348;51.412;5.436;2022-07-23T03:18:32;101690.97;;;14.52;78.15
73981;BME280;62348;51.412;5.436;2022-07-23T03:20:58;101692.88;;;14.52;78.28
73981;BME280;62348;51.412;5.436;2022-07-23T03:23:23;101700.22;;;14.51;78.33
73981;BME280;62348;51.412;5.436;2022-07-23T03:25:48;101700.50;;;14.50;78.37
73981;BME280;62348;51.412;5.436;2022-07-23T03:28:15;101702.94;;;14.51;78.50
73981;BME280;62348;51.412;5.436;2022-07-23T03:30:45;101712.75;;;14.52;78.71
73981;BME280;62348;51.412;5.436;2022-07-23T03:33:16;101702.66;;;14.42;77.96
73981;BME280;62348;51.412;5.436;2022-07-23T03:35:46;101711.88;;;14.41;78.02
73981;BME280;62348;51.412;5.436;2022-07-23T03:38:13;101708.09;;;14.42;78.19
73981;BME280;62348;51.412;5.436;2022-07-23T03:40:38;101707.56;;;14.45;78.50
73981;BME280;62348;51.412;5.436;2022-07-23T03:43:04;101709.44;;;14.40;78.77
73981;BME280;62348;51.412;5.436;2022-07-23T03:45:30;101710.78;;;14.37;78.27
73981;BME280;62348;51.412;5.436;2022-07-23T03:47:55;101702.88;;;14.36;78.43
73981;BME280;62348;51.412;5.436;2022-07-23T03:50:21;101699.09;;;14.37;78.43
73981;BME280;62348;51.412;5.436;2022-07-23T03:52:46;101700.69;;;14.38;78.58
73981;BME280;62348;51.412;5.436;2022-07-23T03:55:12;101706.94;;;14.33;78.63
73981;BME280;62348;51.412;5.436;2022-07-23T03:57:37;101697.13;;;14.32;78.51
73981;BME280;62348;51.412;5.436;2022-07-23T04:00:04;101708.31;;;14.31;78.78
73981;BME280;62348;51.412;5.436;2022-07-23T04:02:30;101699.31;;;14.30;78.72
73981;BME280;62348;51.412;5.436;2022-07-23T04:04:56;101701.22;;;14.30;78.99
73981;BME280;62348;51.412;5.436;2022-07-23T04:07:21;101703.91;;;14.24;78.89
73981;BME280;62348;51.412;5.436;2022-07-23T04:09:47;101708.03;;;14.27;78.88
73981;BME280;62348;51.412;5.436;2022-07-23T04:12:13;101705.28;;;14.27;78.77
73981;BME280;62348;51.412;5.436;2022-07-23T04:14:38;101708.84;;;14.28;78.72
73981;BME280;62348;51.412;5.436;2022-07-23T04:17:03;101708.53;;;14.24;79.01
73981;BME280;62348;51.412;5.436;2022-07-23T04:19:29;101711.53;;;14.28;78.87
73981;BME280;62348;51.412;5.436;2022-07-23T04:21:56;101716.41;;;14.20;78.85
73981;BME280;62348;51.412;5.436;2022-07-23T04:24:21;101721.88;;;14.25;79.07
73981;BME280;62348;51.412;5.436;2022-07-23T04:26:46;101715.38;;;14.27;78.67
73981;BME280;62348;51.412;5.436;2022-07-23T04:29:12;101729.47;;;14.23;78.68
73981;BME280;62348;51.412;5.436;2022-07-23T04:31:37;101732.47;;;14.22;78.99
73981;BME280;62348;51.412;5.436;2022-07-23T04:34:03;101726.75;;;14.23;78.76
73981;BME280;62348;51.412;5.436;2022-07-23T04:36:28;101727.06;;;14.27;79.14
73981;BME280;62348;51.412;5.436;2022-07-23T04:38:54;101732.19;;;14.23;79.30
73981;BME280;62348;51.412;5.436;2022-07-23T04:41:20;101731.09;;;14.24;79.48
73981;BME280;62348;51.412;5.436;2022-07-23T04:43:45;101742.56;;;14.27;79.61
73981;BME280;62348;51.412;5.436;2022-07-23T04:46:11;101742.56;;;14.32;79.06
73981;BME280;62348;51.412;5.436;2022-07-23T04:48:36;101740.41;;;14.34;79.65
73981;BME280;62348;51.412;5.436;2022-07-23T04:51:02;101740.16;;;14.35;79.13
73981;BME280;62348;51.412;5.436;2022-07-23T04:53:28;101743.97;;;14.39;79.35
73981;BME280;62348;51.412;5.436;2022-07-23T04:55:54;101745.09;;;14.49;79.58
73981;BME280;62348;51.412;5.436;2022-07-23T04:58:19;101744.63;;;14.57;79.45
73981;BME280;62348;51.412;5.436;2022-07-23T05:00:45;101745.47;;;14.62;79.18
73981;BME280;62348;51.412;5.436;2022-07-23T05:03:11;101746.00;;;14.59;79.21
73981;BME280;62348;51.412;5.436;2022-07-23T05:05:36;101753.09;;;14.66;79.03
73981;BME280;62348;51.412;5.436;2022-07-23T05:08:02;101754.75;;;14.67;78.60
73981;BME280;62348;51.412;5.436;2022-07-23T05:10:27;101751.75;;;14.68;79.08
73981;BME280;62348;51.412;5.436;2022-07-23T05:12:53;101749.06;;;14.73;79.07
73981;BME280;62348;51.412;5.436;2022-07-23T05:15:18;101751.78;;;14.73;79.24
73981;BME280;62348;51.412;5.436;2022-07-23T05:17:43;101756.16;;;14.74;78.96
73981;BME280;62348;51.412;5.436;2022-07-23T05:20:09;101755.59;;;14.77;78.53
73981;BME280;62348;51.412;5.436;2022-07-23T05:22:35;101748.81;;;14.80;78.54
73981;BME280;62348;51.412;5.436;2022-07-23T05:25:00;101750.44;;;14.81;79.08
73981;BME280;62348;51.412;5.436;2022-07-23T05:27:25;101757.81;;;14.86;78.84
73981;BME280;62348;51.412;5.436;2022-07-23T05:29:51;101754.03;;;14.92;78.91
73981;BME280;62348;51.412;5.436;2022-07-23T05:32:16;101756.19;;;14.90;78.61
73981;BME280;62348;51.412;5.436;2022-07-23T05:34:42;101760.31;;;14.97;78.62
73981;BME280;62348;51.412;5.436;2022-07-23T05:37:07;101755.94;;;15.01;78.83
73981;BME280;62348;51.412;5.436;2022-07-23T05:39:32;101766.31;;;15.05;77.77
73981;BME280;62348;51.412;5.436;2022-07-23T05:41:58;101765.25;;;15.11;78.02
73981;BME280;62348;51.412;5.436;2022-07-23T05:44:23;101774.25;;;15.16;78.33
73981;BME280;62348;51.412;5.436;2022-07-23T05:46:48;101763.91;;;15.18;78.10
73981;BME280;62348;51.412;5.436;2022-07-23T05:49:14;101776.69;;;15.23;78.71
73981;BME280;62348;51.412;5.436;2022-07-23T05:51:39;101769.34;;;15.29;77.86
73981;BME280;62348;51.412;5.436;2022-07-23T05:54:05;101778.91;;;15.31;78.27
73981;BME280;62348;51.412;5.436;2022-07-23T05:56:30;101781.63;;;15.36;78.44
73981;BME280;62348;51.412;5.436;2022-07-23T05:58:55;101779.19;;;15.40;77.76
73981;BME280;62348;51.412;5.436;2022-07-23T06:01:21;101776.47;;;15.45;76.77
73981;BME280;62348;51.412;5.436;2022-07-23T06:03:46;101780.28;;;15.54;77.37
73981;BME280;62348;51.412;5.436;2022-07-23T06:06:12;101786.81;;;15.69;76.76
73981;BME280;62348;51.412;5.436;2022-07-23T06:08:38;101788.78;;;15.84;76.69
73981;BME280;62348;51.412;5.436;2022-07-23T06:11:03;101795.59;;;16.02;74.53
73981;BME280;62348;51.412;5.436;2022-07-23T06:13:29;101800.50;;;16.15;75.00
73981;BME280;62348;51.412;5.436;2022-07-23T06:15:54;101800.47;;;16.30;74.64
73981;BME280;62348;51.412;5.436;2022-07-23T06:18:19;101790.25;;;16.67;72.79
73981;BME280;62348;51.412;5.436;2022-07-23T06:20:45;101790.38;;;17.11;71.81
73981;BME280;62348;51.412;5.436;2022-07-23T06:23:10;101781.53;;;17.64;71.46
73981;BME280;62348;51.412;5.436;2022-07-23T06:25:37;101788.13;;;17.92;69.80
73981;BME280;62348;51.412;5.436;2022-07-23T06:28:03;101782.63;;;18.27;68.97
73981;BME280;62348;51.412;5.436;2022-07-23T06:30:28;101792.63;;;18.61;67.45
73981;BME280;62348;51.412;5.436;2022-07-23T06:32:54;101791.63;;;18.76;65.07
73981;BME280;62348;51.412;5.436;2022-07-23T06:35:19;101806.81;;;18.92;64.10
73981;BME280;62348;51.412;5.436;2022-07-23T06:37:45;101791.34;;;19.20;64.36
73981;BME280;62348;51.412;5.436;2022-07-23T06:40:10;101786.84;;;19.29;63.90
73981;BME280;62348;51.412;5.436;2022-07-23T06:42:36;101790.75;;;19.23;63.10
73981;BME280;62348;51.412;5.436;2022-07-23T06:45:05;101792.22;;;19.16;63.69
73981;BME280;62348;51.412;5.436;2022-07-23T06:47:31;101795.25;;;19.14;61.74
73981;BME280;62348;51.412;5.436;2022-07-23T06:49:56;101799.47;;;19.06;61.81
73981;BME280;62348;51.412;5.436;2022-07-23T06:52:21;101800.31;;;19.07;61.47
73981;BME280;62348;51.412;5.436;2022-07-23T06:54:47;101806.03;;;19.10;63.49
73981;BME280;62348;51.412;5.436;2022-07-23T06:57:12;101793.72;;;19.08;61.92
73981;BME280;62348;51.412;5.436;2022-07-23T06:59:37;101797.50;;;19.12;61.32
73981;BME280;62348;51.412;5.436;2022-07-23T07:02:06;101799.56;;;19.01;62.36
73981;BME280;62348;51.412;5.436;2022-07-23T07:04:32;101796.97;;;19.10;61.83
73981;BME280;62348;51.412;5.436;2022-07-23T07:06:57;101788.38;;;19.17;61.30
73981;BME280;62348;51.412;5.436;2022-07-23T07:09:23;101792.53;;;19.14;61.63
73981;BME280;62348;51.412;5.436;2022-07-23T07:11:48;101784.31;;;19.33;61.97
73981;BME280;62348;51.412;5.436;2022-07-23T07:14:14;101793.81;;;19.41;60.79
73981;BME280;62348;51.412;5.436;2022-07-23T07:16:39;101795.88;;;19.49;62.44
73981;BME280;62348;51.412;5.436;2022-07-23T07:19:04;101794.88;;;19.59;60.17
73981;BME280;62348;51.412;5.436;2022-07-23T07:21:30;101793.38;;;19.66;58.58
73981;BME280;62348;51.412;5.436;2022-07-23T07:23:55;101800.19;;;19.69;60.36
73981;BME280;62348;51.412;5.436;2022-07-23T07:26:21;101798.28;;;19.88;59.70
73981;BME280;62348;51.412;5.436;2022-07-23T07:28:46;101801.44;;;19.96;58.68
73981;BME280;62348;51.412;5.436;2022-07-23T07:31:11;101804.78;;;19.93;57.60
73981;BME280;62348;51.412;5.436;2022-07-23T07:33:37;101812.44;;;19.96;58.83
73981;BME280;62348;51.412;5.436;2022-07-23T07:36:03;101811.31;;;20.11;59.25
73981;BME280;62348;51.412;5.436;2022-07-23T07:38:29;101812.47;;;20.23;58.30
73981;BME280;62348;51.412;5.436;2022-07-23T07:40:54;101811.97;;;20.35;57.12
73981;BME280;62348;51.412;5.436;2022-07-23T07:43:19;101807.50;;;20.39;56.73
73981;BME280;62348;51.412;5.436;2022-07-23T07:45:45;101812.69;;;20.41;55.35
73981;BME280;62348;51.412;5.436;2022-07-23T07:48:10;101813.31;;;20.52;55.43
73981;BME280;62348;51.412;5.436;2022-07-23T07:50:35;101811.78;;;20.45;56.30
73981;BME280;62348;51.412;5.436;2022-07-23T07:53:01;101814.84;;;20.58;55.19
73981;BME280;62348;51.412;5.436;2022-07-23T07:55:26;101815.88;;;20.62;56.90
73981;BME280;62348;51.412;5.436;2022-07-23T07:57:53;101817.38;;;20.54;56.68
73981;BME280;62348;51.412;5.436;2022-07-23T08:00:19;101813.22;;;20.84;58.42
73981;BME280;62348;51.412;5.436;2022-07-23T08:02:46;101826.06;;;20.75;53.89
73981;BME280;62348;51.412;5.436;2022-07-23T08:05:12;101821.47;;;20.84;53.62
73981;BME280;62348;51.412;5.436;2022-07-23T08:07:38;101821.38;;;20.90;53.26
73981;BME280;62348;51.412;5.436;2022-07-23T08:10:08;101818.53;;;20.95;54.65
73981;BME280;62348;51.412;5.436;2022-07-23T08:12:43;101829.28;;;21.05;57.05
73981;BME280;62348;51.412;5.436;2022-07-23T08:15:10;101823.78;;;21.05;55.28
73981;BME280;62348;51.412;5.436;2022-07-23T08:17:35;101818.09;;;21.15;53.62
73981;BME280;62348;51.412;5.436;2022-07-23T08:20:01;101816.44;;;21.14;53.72
73981;BME280;62348;51.412;5.436;2022-07-23T08:23:26;101817.59;;;21.36;53.70
73981;BME280;62348;51.412;5.436;2022-07-23T08:25:31;101828.09;;;21.34;52.18
73981;BME280;62348;51.412;5.436;2022-07-23T08:27:58;101829.94;;;21.24;52.73
73981;BME280;62348;51.412;5.436;2022-07-23T08:30:24;101823.22;;;21.31;52.76
73981;BME280;62348;51.412;5.436;2022-07-23T08:32:55;101827.50;;;21.37;52.23
73981;BME280;62348;51.412;5.436;2022-07-23T08:35:23;101826.78;;;21.68;51.09
73981;BME280;62348;51.412;5.436;2022-07-23T08:37:49;101833.06;;;21.59;51.86
73981;BME280;62348;51.412;5.436;2022-07-23T08:40:14;101835.81;;;21.59;51.31
73981;BME280;62348;51.412;5.436;2022-07-23T08:42:39;101835.50;;;21.61;50.37
73981;BME280;62348;51.412;5.436;2022-07-23T08:45:07;101839.69;;;21.81;50.41
73981;BME280;62348;51.412;5.436;2022-07-23T08:47:35;101833.94;;;21.69;50.78
73981;BME280;62348;51.412;5.436;2022-07-23T08:50:02;101838.28;;;21.70;49.37
73981;BME280;62348;51.412;5.436;2022-07-23T08:52:30;101835.84;;;21.91;49.47
73981;BME280;62348;51.412;5.436;2022-07-23T08:54:56;101835.78;;;22.05;48.72
73981;BME280;62348;51.412;5.436;2022-07-23T08:57:22;101834.03;;;22.09;49.48
73981;BME280;62348;51.412;5.436;2022-07-23T08:59:47;101839.47;;;22.00;49.03
73981;BME280;62348;51.412;5.436;2022-07-23T09:02:13;101838.09;;;22.11;50.36
73981;BME280;62348;51.412;5.436;2022-07-23T09:04:39;101841.16;;;22.10;50.39
73981;BME280;62348;51.412;5.436;2022-07-23T09:07:05;101834.44;;;22.25;48.72
73981;BME280;62348;51.412;5.436;2022-07-23T09:09:30;101837.59;;;22.32;49.96
73981;BME280;62348;51.412;5.436;2022-07-23T09:12:08;101827.13;;;22.51;49.55
73981;BME280;62348;51.412;5.436;2022-07-23T09:14:42;101833.56;;;22.38;49.24
73981;BME280;62348;51.412;5.436;2022-07-23T09:17:17;101827.13;;;22.51;49.68
73981;BME280;62348;51.412;5.436;2022-07-23T09:19:44;101822.31;;;22.66;48.10
73981;BME280;62348;51.412;5.436;2022-07-23T09:22:36;101814.91;;;22.84;50.01
73981;BME280;62348;51.412;5.436;2022-07-23T09:30:22;101815.09;;;22.87;47.21
73981;BME280;62348;51.412;5.436;2022-07-23T09:35:52;101830.19;;;22.90;48.53
73981;BME280;62348;51.412;5.436;2022-07-23T09:38:19;101830.31;;;22.85;46.49
73981;BME280;62348;51.412;5.436;2022-07-23T09:40:45;101832.84;;;23.04;45.35
73981;BME280;62348;51.412;5.436;2022-07-23T09:43:12;101834.78;;;23.03;46.99
73981;BME280;62348;51.412;5.436;2022-07-23T09:45:38;101832.31;;;23.02;46.69
73981;BME280;62348;51.412;5.436;2022-07-23T09:48:14;101834.97;;;23.15;46.22
73981;BME280;62348;51.412;5.436;2022-07-23T09:50:44;101839.50;;;23.11;47.05
73981;BME280;62348;51.412;5.436;2022-07-23T09:53:23;101829.63;;;23.28;46.65
73981;BME280;62348;51.412;5.436;2022-07-23T09:55:49;101832.38;;;23.45;47.36
73981;BME280;62348;51.412;5.436;2022-07-23T09:58:15;101832.06;;;23.38;45.74
73981;BME280;62348;51.412;5.436;2022-07-23T10:00:42;101838.53;;;23.33;46.16
73981;BME280;62348;51.412;5.436;2022-07-23T10:03:11;101834.13;;;23.24;48.07
73981;BME280;62348;51.412;5.436;2022-07-23T10:05:37;101828.47;;;23.29;45.90
73981;BME280;62348;51.412;5.436;2022-07-23T10:08:04;101832.06;;;23.38;46.04
73981;BME280;62348;51.412;5.436;2022-07-23T10:10:32;101833.19;;;23.28;45.81
73981;BME280;62348;51.412;5.436;2022-07-23T10:12:58;101828.16;;;23.56;46.67
73981;BME280;62348;51.412;5.436;2022-07-23T10:15:42;101831.41;;;23.58;45.23
73981;BME280;62348;51.412;5.436;2022-07-23T10:18:10;101826.03;;;23.53;43.64
73981;BME280;62348;51.412;5.436;2022-07-23T10:20:37;101828.97;;;23.57;44.36
73981;BME280;62348;51.412;5.436;2022-07-23T10:26:09;101821.66;;;23.78;45.24
73981;BME280;62348;51.412;5.436;2022-07-23T10:29:02;101825.88;;;23.76;44.66
73981;BME280;62348;51.412;5.436;2022-07-23T10:31:56;101821.94;;;23.77;44.02
73981;BME280;62348;51.412;5.436;2022-07-23T10:36:59;101822.47;;;23.62;43.92
73981;BME280;62348;51.412;5.436;2022-07-23T10:39:34;101829.78;;;23.66;44.62
73981;BME280;62348;51.412;5.436;2022-07-23T10:42:16;101824.41;;;23.78;45.15
73981;BME280;62348;51.412;5.436;2022-07-23T10:44:44;101834.97;;;23.68;42.94
73981;BME280;62348;51.412;5.436;2022-07-23T10:47:10;101829.63;;;23.63;44.23
73981;BME280;62348;51.412;5.436;2022-07-23T10:49:45;101827.81;;;23.75;43.24
73981;BME280;62348;51.412;5.436;2022-07-23T10:54:48;101824.09;;;23.80;44.78
73981;BME280;62348;51.412;5.436;2022-07-23T10:57:17;101823.09;;;23.93;45.52
73981;BME280;62348;51.412;5.436;2022-07-23T11:02:30;101820.66;;;23.92;44.87
73981;BME280;62348;51.412;5.436;2022-07-23T11:05:07;101818.75;;;23.84;45.83
73981;BME280;62348;51.412;5.436;2022-07-23T11:10:39;101827.00;;;23.92;44.94
73981;BME280;62348;51.412;5.436;2022-07-23T11:26:44;101815.44;;;24.08;45.08
73981;BME280;62348;51.412;5.436;2022-07-23T11:37:06;101812.53;;;24.04;43.22
73981;BME280;62348;51.412;5.436;2022-07-23T11:39:32;101817.03;;;24.09;46.11
73981;BME280;62348;51.412;5.436;2022-07-23T11:41:59;101808.09;;;24.12;44.56
73981;BME280;62348;51.412;5.436;2022-07-23T11:44:29;101811.38;;;24.05;44.25
73981;BME280;62348;51.412;5.436;2022-07-23T11:47:00;101803.59;;;23.99;44.52
73981;BME280;62348;51.412;5.436;2022-07-23T11:49:27;101805.88;;;23.96;43.72
73981;BME280;62348;51.412;5.436;2022-07-23T11:52:10;101810.09;;;24.03;44.86
73981;BME280;62348;51.412;5.436;2022-07-23T11:54:53;101808.44;;;24.02;43.49
73981;BME280;62348;51.412;5.436;2022-07-23T11:57:20;101807.19;;;23.90;43.78
73981;BME280;62348;51.412;5.436;2022-07-23T11:59:47;101803.28;;;23.91;42.80
73981;BME280;62348;51.412;5.436;2022-07-23T12:02:14;101805.06;;;23.96;44.23
73981;BME280;62348;51.412;5.436;2022-07-23T12:04:45;101801.81;;;23.94;43.78
73981;BME280;62348;51.412;5.436;2022-07-23T12:07:39;101809.91;;;24.08;45.11
73981;BME280;62348;51.412;5.436;2022-07-23T12:10:12;101809.22;;;24.11;44.98
73981;BME280;62348;51.412;5.436;2022-07-23T12:12:43;101808.75;;;24.09;44.13
73981;BME280;62348;51.412;5.436;2022-07-23T12:15:10;101803.75;;;24.02;42.02
73981;BME280;62348;51.412;5.436;2022-07-23T12:17:37;101803.88;;;24.14;43.57
73981;BME280;62348;51.412;5.436;2022-07-23T12:20:06;101802.91;;;24.10;43.75
73981;BME280;62348;51.412;5.436;2022-07-23T12:22:39;101802.25;;;24.13;43.15
73981;BME280;62348;51.412;5.436;2022-07-23T12:25:10;101802.09;;;24.10;43.02
73981;BME280;62348;51.412;5.436;2022-07-23T12:27:37;101789.75;;;24.07;43.96
73981;BME280;62348;51.412;5.436;2022-07-23T12:30:39;101803.03;;;24.23;44.63
73981;BME280;62348;51.412;5.436;2022-07-23T12:33:07;101789.25;;;24.14;42.32
73981;BME280;62348;51.412;5.436;2022-07-23T12:35:38;101797.06;;;24.12;43.21
73981;BME280;62348;51.412;5.436;2022-07-23T12:38:09;101790.97;;;24.27;44.75
73981;BME280;62348;51.412;5.436;2022-07-23T12:40:37;101781.59;;;24.20;43.78
73981;BME280;62348;51.412;5.436;2022-07-23T12:43:10;101786.81;;;24.12;43.13
73981;BME280;62348;51.412;5.436;2022-07-23T12:46:12;101785.00;;;24.16;44.44
73981;BME280;62348;51.412;5.436;2022-07-23T12:51:29;101784.47;;;23.85;42.89
73981;BME280;62348;51.412;5.436;2022-07-23T12:53:59;101781.06;;;23.70;43.69
73981;BME280;62348;51.412;5.436;2022-07-23T12:56:31;101783.16;;;23.65;44.03
73981;BME280;62348;51.412;5.436;2022-07-23T12:59:14;101791.63;;;23.68;45.33
73981;BME280;62348;51.412;5.436;2022-07-23T13:01:52;101781.06;;;23.62;43.75
73981;BME280;62348;51.412;5.436;2022-07-23T13:04:20;101785.44;;;23.63;43.14
73981;BME280;62348;51.412;5.436;2022-07-23T13:06:49;101783.00;;;23.61;44.59
73981;BME280;62348;51.412;5.436;2022-07-23T13:09:17;101785.78;;;23.61;45.51
73981;BME280;62348;51.412;5.436;2022-07-23T13:11:44;101786.72;;;23.74;45.67
73981;BME280;62348;51.412;5.436;2022-07-23T13:14:10;101784.13;;;23.77;43.23
73981;BME280;62348;51.412;5.436;2022-07-23T13:16:37;101787.72;;;23.87;43.44
73981;BME280;62348;51.412;5.436;2022-07-23T13:19:03;101789.63;;;23.95;43.51
73981;BME280;62348;51.412;5.436;2022-07-23T13:21:28;101787.69;;;23.95;43.00
73981;BME280;62348;51.412;5.436;2022-07-23T13:23:55;101792.03;;;24.05;42.79
73981;BME280;62348;51.412;5.436;2022-07-23T13:26:21;101775.94;;;24.07;42.91
73981;BME280;62348;51.412;5.436;2022-07-23T13:28:46;101781.75;;;24.14;43.28
73981;BME280;62348;51.412;5.436;2022-07-23T13:31:12;101771.56;;;24.06;44.44
73981;BME280;62348;51.412;5.436;2022-07-23T13:33:38;101767.81;;;24.11;45.69
73981;BME280;62348;51.412;5.436;2022-07-23T13:36:04;101777.72;;;24.12;43.65
73981;BME280;62348;51.412;5.436;2022-07-23T13:38:29;101777.72;;;24.12;42.84